createdAt,value
2018-08-07T00:00:13.464Z,49.30
2018-08-07T00:02:42.099Z,49.30
2018-08-07T00:05:10.784Z,49.30
2018-08-07T00:07:39.384Z,49.40
2018-08-07T00:10:09.403Z,49.50
2018-08-07T00:12:38.347Z,49.50
2018-08-07T00:15:09.380Z,49.50
2018-08-07T00:17:38.226Z,49.60
2018-08-07T00:20:06.856Z,49.40
2018-08-07T00:22:35.600Z,49.60
2018-08-07T00:25:05.468Z,49.70
2018-08-07T00:27:34.392Z,49.60
2018-08-07T00:30:03.770Z,49.90
2018-08-07T00:32:32.762Z,50.00
2018-08-07T00:35:01.704Z,50.10
2018-08-07T00:39:59.449Z,50.50
2018-08-07T00:42:28.115Z,50.60
2018-08-07T00:44:57.087Z,50.60
2018-08-07T00:47:25.874Z,50.70
2018-08-07T00:49:54.793Z,50.80
2018-08-07T00:52:23.375Z,50.90
2018-08-07T00:54:52.011Z,50.80
2018-08-07T00:57:20.695Z,50.70
2018-08-07T00:59:49.433Z,50.60
2018-08-07T01:02:18.236Z,50.60
2018-08-07T01:04:47.043Z,50.80
2018-08-07T01:07:15.698Z,50.90
2018-08-07T01:09:44.380Z,51.20
2018-08-07T01:12:13.341Z,51.30
2018-08-07T01:14:42.271Z,51.50
2018-08-07T01:17:11.071Z,51.40
2018-08-07T01:19:40.055Z,51.40
2018-08-07T01:22:08.808Z,51.60
2018-08-07T01:24:37.440Z,51.80
2018-08-07T01:27:06.652Z,52.20
2018-08-07T01:29:35.414Z,52.40
2018-08-07T01:32:04.012Z,52.50
2018-08-07T01:34:32.837Z,52.50
2018-08-07T01:37:01.737Z,52.30
2018-08-07T01:39:30.427Z,52.70
2018-08-07T01:41:59.115Z,52.60
2018-08-07T01:44:27.792Z,52.80
2018-08-07T01:46:56.421Z,53.00
2018-08-07T01:51:53.517Z,53.10
2018-08-07T01:54:22.414Z,53.20
2018-08-07T01:56:51.022Z,53.30
2018-08-07T01:59:19.670Z,53.30
2018-08-07T02:01:48.523Z,53.40
2018-08-07T02:04:17.127Z,53.30
2018-08-07T02:06:46.353Z,53.30
2018-08-07T02:09:15.375Z,53.30
2018-08-07T02:11:44.011Z,53.50
2018-08-07T02:14:12.890Z,53.60
2018-08-07T02:16:41.569Z,53.90
2018-08-07T02:19:10.260Z,53.90
2018-08-07T02:21:38.965Z,53.90
2018-08-07T02:24:07.474Z,53.80
2018-08-07T02:26:36.031Z,53.80
2018-08-07T02:29:05.341Z,53.80
2018-08-07T02:31:33.995Z,54.00
2018-08-07T02:34:03.321Z,54.20
2018-08-07T02:36:32.254Z,54.30
2018-08-07T02:39:01.044Z,54.70
2018-08-07T02:41:29.732Z,55.10
2018-08-07T02:43:58.338Z,55.20
2018-08-07T02:46:27.166Z,55.20
2018-08-07T02:51:39.441Z,54.80
2018-08-07T02:54:08.368Z,54.90
2018-08-07T02:56:37.001Z,54.90
2018-08-07T02:59:05.725Z,55.00
2018-08-07T03:01:34.326Z,55.20
2018-08-07T03:04:02.944Z,55.20
2018-08-07T03:06:32.055Z,55.00
2018-08-07T03:09:00.634Z,55.30
2018-08-07T03:11:29.170Z,55.20
2018-08-07T03:13:57.797Z,55.10
2018-08-07T03:16:26.787Z,55.30
2018-08-07T03:18:55.843Z,55.20
2018-08-07T03:21:24.520Z,55.00
2018-08-07T03:23:54.631Z,55.00
2018-08-07T03:26:23.259Z,55.00
2018-08-07T03:28:52.209Z,55.00
2018-08-07T03:31:21.087Z,55.20
2018-08-07T03:33:49.916Z,55.10
2018-08-07T03:36:18.750Z,55.20
2018-08-07T03:38:47.776Z,55.50
2018-08-07T03:41:16.522Z,55.70
2018-08-07T03:46:13.758Z,55.40
2018-08-07T03:48:42.816Z,55.30
2018-08-07T03:51:11.489Z,55.50
2018-08-07T03:53:40.072Z,55.60
2018-08-07T03:56:08.866Z,55.80
2018-08-07T03:58:37.516Z,55.80
2018-08-07T04:01:06.715Z,55.60
2018-08-07T04:03:35.356Z,55.70
2018-08-07T04:06:04.203Z,55.80
2018-08-07T04:08:33.476Z,55.80
2018-08-07T04:11:02.401Z,55.80
2018-08-07T04:13:31.082Z,55.80
2018-08-07T04:16:00.300Z,56.20
2018-08-07T04:20:57.862Z,56.40
2018-08-07T04:23:26.734Z,56.50
2018-08-07T04:25:55.387Z,56.50
2018-08-07T04:28:24.085Z,56.60
2018-08-07T04:30:53.265Z,56.70
2018-08-07T04:33:22.361Z,56.70
2018-08-07T04:35:51.072Z,56.70
2018-08-07T04:38:19.948Z,56.80
2018-08-07T04:40:49.164Z,56.80
2018-08-07T04:43:18.024Z,56.80
2018-08-07T04:45:46.800Z,56.80
2018-08-07T04:48:15.602Z,57.00
2018-08-07T04:50:44.440Z,57.10
2018-08-07T04:53:14.134Z,57.40
2018-08-07T04:55:42.836Z,57.70
2018-08-07T04:58:11.561Z,57.90
2018-08-07T05:00:40.416Z,57.70
2018-08-07T05:03:09.307Z,57.50
2018-08-07T05:05:38.268Z,57.40
2018-08-07T05:08:07.319Z,57.10
2018-08-07T05:10:36.434Z,57.00
2018-08-07T05:13:05.199Z,56.70
2018-08-07T05:15:34.132Z,56.80
2018-08-07T05:18:02.929Z,56.60
2018-08-07T05:20:31.652Z,56.60
2018-08-07T05:23:00.847Z,56.10
2018-08-07T05:25:29.531Z,56.20
2018-08-07T05:27:58.150Z,56.20
2018-08-07T05:30:26.985Z,56.40
2018-08-07T05:32:55.924Z,56.50
2018-08-07T05:35:25.141Z,56.30
2018-08-07T05:37:53.770Z,56.00
2018-08-07T05:40:23.701Z,55.80
2018-08-07T05:42:53.277Z,55.60
2018-08-07T05:45:22.140Z,55.60
2018-08-07T05:47:50.929Z,55.50
2018-08-07T05:50:20.046Z,55.30
2018-08-07T05:52:49.307Z,55.20
2018-08-07T05:55:18.249Z,55.10
2018-08-07T05:57:47.269Z,54.80
2018-08-07T06:00:18.361Z,54.80
2018-08-07T06:02:48.127Z,54.80
2018-08-07T06:05:17.629Z,54.80
2018-08-07T06:07:46.544Z,54.80
2018-08-07T06:10:15.832Z,54.70
2018-08-07T06:15:15.481Z,54.60
2018-08-07T06:17:45.067Z,54.40
2018-08-07T06:20:14.868Z,53.90
2018-08-07T06:22:44.014Z,53.80
2018-08-07T06:25:14.954Z,53.60
2018-08-07T06:27:45.792Z,53.20
2018-08-07T06:30:19.180Z,52.80
2018-08-07T06:32:48.789Z,52.90
2018-08-07T06:35:19.080Z,53.00
2018-08-07T06:37:48.337Z,52.90
2018-08-07T06:40:17.014Z,52.70
2018-08-07T06:42:46.032Z,52.60
2018-08-07T06:45:16.944Z,52.60
2018-08-07T06:47:47.562Z,53.00
2018-08-07T06:50:20.064Z,52.40
2018-08-07T06:52:49.785Z,52.20
2018-08-07T06:55:18.834Z,52.40
2018-08-07T06:57:47.530Z,51.80
2018-08-07T07:00:24.152Z,51.50
2018-08-07T07:02:53.829Z,51.20
2018-08-07T07:05:23.000Z,51.10
2018-08-07T07:07:51.814Z,50.70
2018-08-07T07:10:20.716Z,50.10
2018-08-07T07:12:50.355Z,50.00
2018-08-07T07:15:19.136Z,49.40
2018-08-07T07:17:48.480Z,49.10
2018-08-07T07:20:18.827Z,49.30
2018-08-07T07:22:48.817Z,49.10
2018-08-07T07:25:17.816Z,49.30
2018-08-07T07:27:46.470Z,49.30
2018-08-07T07:30:17.480Z,49.50
2018-08-07T07:32:48.667Z,49.50
2018-08-07T07:35:18.484Z,49.90
2018-08-07T07:37:47.576Z,50.20
2018-08-07T07:40:16.837Z,50.30
2018-08-07T07:42:45.636Z,50.40
2018-08-07T07:45:17.058Z,50.40
2018-08-07T07:47:45.806Z,50.30
2018-08-07T07:50:18.453Z,50.50
2018-08-07T07:52:49.008Z,50.50
2018-08-07T07:55:18.358Z,50.50
2018-08-07T07:57:49.771Z,50.50
2018-08-07T08:00:21.532Z,50.70
2018-08-07T08:02:50.970Z,50.90
2018-08-07T08:05:20.881Z,51.10
2018-08-07T08:07:49.944Z,51.10
2018-08-07T08:10:18.740Z,51.30
2018-08-07T08:12:47.707Z,51.20
2018-08-07T08:15:18.548Z,51.20
2018-08-07T08:17:48.117Z,51.20
2018-08-07T08:20:19.644Z,51.10
2018-08-07T08:22:49.347Z,51.10
2018-08-07T08:25:19.167Z,51.00
2018-08-07T08:27:48.705Z,50.90
2018-08-07T08:30:19.584Z,50.80
2018-08-07T08:32:48.707Z,50.90
2018-08-07T08:35:19.177Z,50.80
2018-08-07T08:37:48.154Z,50.70
2018-08-07T08:40:18.663Z,50.90
2018-08-07T08:42:47.510Z,50.80
2018-08-07T08:45:20.667Z,50.60
2018-08-07T08:47:53.956Z,50.80
2018-08-07T08:50:23.320Z,50.70
2018-08-07T08:52:52.665Z,50.80
2018-08-07T08:55:22.471Z,50.80
2018-08-07T08:57:53.392Z,50.70
2018-08-07T09:00:27.986Z,51.00
2018-08-07T09:02:58.283Z,50.70
2018-08-07T09:05:27.748Z,50.80
2018-08-07T09:07:56.504Z,51.00
2018-08-07T09:10:27.156Z,50.90
2018-08-07T09:12:56.619Z,51.00
2018-08-07T09:15:25.461Z,51.20
2018-08-07T09:17:54.371Z,51.80
2018-08-07T09:20:26.134Z,51.30
2018-08-07T09:22:55.311Z,51.20
2018-08-07T09:25:25.409Z,51.30
2018-08-07T09:27:54.375Z,51.50
2018-08-07T09:30:24.735Z,51.40
2018-08-07T09:32:54.439Z,51.70
2018-08-07T09:35:25.294Z,51.50
2018-08-07T09:37:55.110Z,51.50
2018-08-07T09:40:25.639Z,51.80
2018-08-07T09:42:55.367Z,52.00
2018-08-07T09:45:30.696Z,51.80
2018-08-07T09:48:00.018Z,51.70
2018-08-07T09:50:28.649Z,51.60
2018-08-07T09:52:57.327Z,51.60
2018-08-07T09:55:27.160Z,51.80
2018-08-07T09:57:56.726Z,51.60
2018-08-07T10:00:30.901Z,51.60
2018-08-07T10:03:10.545Z,51.40
2018-08-07T10:05:39.643Z,51.70
2018-08-07T10:08:08.541Z,51.50
2018-08-07T10:10:37.490Z,51.40
2018-08-07T10:13:06.483Z,51.40
2018-08-07T10:15:35.190Z,51.30
2018-08-07T10:18:04.064Z,51.00
2018-08-07T10:20:33.375Z,50.80
2018-08-07T10:23:03.382Z,49.60
2018-08-07T10:25:32.696Z,48.40
2018-08-07T10:28:01.836Z,47.30
2018-08-07T10:30:32.971Z,46.50
2018-08-07T10:33:01.751Z,46.20
2018-08-07T10:35:30.952Z,45.50
2018-08-07T10:37:59.969Z,45.10
2018-08-07T10:40:29.097Z,45.50
2018-08-07T10:42:58.531Z,44.80
2018-08-07T10:45:27.207Z,44.00
2018-08-07T10:47:56.018Z,44.80
2018-08-07T10:50:25.994Z,44.70
2018-08-07T10:52:54.976Z,45.10
2018-08-07T10:55:24.554Z,44.70
2018-08-07T11:00:24.122Z,45.60
2018-08-07T11:02:54.838Z,45.50
2018-08-07T11:05:24.691Z,45.60
2018-08-07T11:07:53.773Z,45.50
2018-08-07T11:10:22.815Z,45.50
2018-08-07T11:12:52.137Z,45.30
2018-08-07T11:15:28.487Z,44.90
2018-08-07T11:17:58.440Z,45.90
2018-08-07T11:20:27.225Z,45.90
2018-08-07T11:22:57.475Z,45.80
2018-08-07T11:25:27.102Z,46.30
2018-08-07T11:27:56.563Z,46.20
2018-08-07T11:30:26.440Z,44.70
2018-08-07T11:32:56.123Z,45.20
2018-08-07T11:35:25.354Z,44.80
2018-08-07T11:37:58.648Z,44.90
2018-08-07T11:42:56.942Z,45.10
2018-08-07T11:45:27.468Z,45.40
2018-08-07T11:47:56.974Z,45.80
2018-08-07T11:50:30.220Z,45.90
2018-08-07T11:52:59.839Z,46.00
2018-08-07T11:55:28.740Z,46.20
2018-08-07T11:57:57.536Z,46.00
2018-08-07T12:00:30.052Z,46.30
2018-08-07T12:05:27.413Z,45.70
2018-08-07T12:10:24.646Z,45.80
2018-08-07T12:12:53.846Z,46.10
2018-08-07T12:15:23.759Z,45.30
2018-08-07T12:17:52.980Z,44.30
2018-08-07T12:20:22.372Z,44.70
2018-08-07T12:22:52.056Z,45.60
2018-08-07T12:25:21.418Z,44.60
2018-08-07T12:27:50.543Z,44.40
2018-08-07T12:30:22.945Z,45.40
2018-08-07T12:32:51.776Z,44.70
2018-08-07T12:35:21.031Z,44.40
2018-08-07T12:37:49.819Z,44.90
2018-08-07T12:40:23.700Z,45.70
2018-08-07T12:42:54.330Z,45.90
2018-08-07T12:45:23.027Z,46.10
2018-08-07T12:47:52.581Z,46.40
2018-08-07T12:50:21.205Z,46.70
2018-08-07T12:52:50.009Z,46.80
2018-08-07T12:55:20.447Z,47.00
2018-08-07T12:57:49.532Z,47.10
2018-08-07T13:00:21.812Z,47.00
2018-08-07T13:02:50.856Z,46.90
2018-08-07T13:07:48.570Z,47.30
2018-08-07T13:10:18.619Z,47.50
2018-08-07T13:12:48.424Z,47.50
2018-08-07T13:15:18.653Z,47.60
2018-08-07T13:17:49.025Z,47.80
2018-08-07T13:20:18.084Z,47.80
2018-08-07T13:22:47.452Z,47.90
2018-08-07T13:25:18.654Z,48.00
2018-08-07T13:27:47.811Z,48.20
2018-08-07T13:30:18.917Z,48.50
2018-08-07T13:32:48.125Z,48.30
2018-08-07T13:35:17.454Z,48.60
2018-08-07T13:37:47.692Z,48.90
2018-08-07T13:40:18.101Z,49.20
2018-08-07T13:42:46.788Z,49.50
2018-08-07T13:45:17.557Z,49.80
2018-08-07T13:47:46.991Z,50.00
2018-08-07T13:50:18.496Z,50.30
2018-08-07T13:52:47.939Z,50.80
2018-08-07T13:55:17.733Z,51.00
2018-08-07T13:57:47.854Z,51.40
2018-08-07T14:00:18.968Z,51.50
2018-08-07T14:02:48.819Z,51.50
2018-08-07T14:07:48.283Z,51.50
2018-08-07T14:10:18.562Z,51.50
2018-08-07T14:15:18.056Z,51.40
2018-08-07T14:17:48.056Z,51.40
2018-08-07T14:20:17.569Z,51.30
2018-08-07T14:22:46.754Z,51.40
2018-08-07T14:25:19.736Z,51.40
2018-08-07T14:27:50.684Z,51.50
2018-08-07T14:30:27.478Z,51.60
2018-08-07T14:32:56.589Z,51.70
2018-08-07T14:35:25.670Z,51.70
2018-08-07T14:37:54.343Z,51.70
2018-08-07T14:40:25.226Z,51.70
2018-08-07T14:42:54.588Z,51.70
2018-08-07T14:45:26.797Z,51.70
2018-08-07T14:48:40.923Z,51.70
2018-08-07T14:51:09.570Z,51.20
2018-08-07T14:53:38.986Z,51.30
2018-08-07T14:56:08.017Z,51.10
2018-08-07T14:58:36.978Z,50.80
2018-08-07T15:01:06.070Z,51.20
2018-08-07T15:03:35.143Z,50.60
2018-08-07T15:06:04.345Z,50.40
2018-08-07T15:08:33.341Z,50.00
2018-08-07T15:11:02.790Z,50.20
2018-08-07T15:13:31.666Z,49.90
2018-08-07T15:16:00.692Z,49.90
2018-08-07T15:18:29.412Z,50.10
2018-08-07T15:20:58.106Z,49.60
2018-08-07T15:23:27.122Z,49.40
2018-08-07T15:25:56.228Z,50.30
2018-08-07T15:28:24.926Z,49.30
2018-08-07T15:30:55.277Z,49.10
2018-08-07T15:33:23.990Z,49.70
2018-08-07T15:35:53.582Z,49.10
2018-08-07T15:38:22.693Z,49.30
2018-08-07T15:40:51.547Z,49.30
2018-08-07T15:43:20.768Z,49.20
2018-08-07T15:45:49.716Z,49.50
2018-08-07T15:48:18.510Z,49.50
2018-08-07T15:50:47.487Z,49.70
2018-08-07T15:53:16.409Z,49.60
2018-08-07T15:55:46.058Z,49.80
2018-08-07T15:58:15.033Z,50.00
2018-08-07T16:00:44.049Z,50.30
2018-08-07T16:03:17.043Z,50.40
2018-08-07T16:05:46.458Z,50.30
2018-08-07T16:08:15.920Z,51.10
2018-08-07T16:10:45.882Z,50.30
2018-08-07T16:13:14.866Z,50.20
2018-08-07T16:15:43.878Z,50.50
2018-08-07T16:18:13.038Z,50.50
2018-08-07T16:20:42.146Z,50.50
2018-08-07T16:23:11.128Z,50.80
2018-08-07T16:25:40.372Z,50.90
2018-08-07T16:28:09.344Z,50.40
2018-08-07T16:30:43.840Z,50.60
2018-08-07T16:33:12.603Z,50.70
2018-08-07T16:35:42.883Z,50.80
2018-08-07T16:38:12.355Z,51.00
2018-08-07T16:40:41.786Z,51.00
2018-08-07T16:43:10.550Z,50.90
2018-08-07T16:45:41.196Z,50.70
2018-08-07T16:48:10.132Z,50.80
2018-08-07T16:50:39.462Z,51.00
2018-08-07T16:53:08.896Z,50.80
2018-08-07T16:55:37.795Z,51.20
2018-08-07T16:58:07.435Z,51.10
2018-08-07T17:00:37.294Z,50.10
2018-08-07T17:03:06.902Z,50.20
2018-08-07T17:05:35.957Z,50.60
2018-08-07T17:08:05.375Z,50.80
2018-08-07T17:10:35.848Z,51.00
2018-08-07T17:13:04.935Z,50.70
2018-08-07T17:15:33.953Z,50.70
2018-08-07T17:18:04.041Z,50.50
2018-08-07T17:20:33.726Z,50.30
2018-08-07T17:23:03.088Z,50.50
2018-08-07T17:25:32.478Z,50.60
2018-08-07T17:28:01.989Z,50.60
2018-08-07T17:30:31.643Z,50.80
2018-08-07T17:33:00.532Z,51.10
2018-08-07T17:35:29.429Z,50.80
2018-08-07T17:37:59.378Z,50.80
2018-08-07T17:40:29.759Z,50.90
2018-08-07T17:42:59.735Z,50.80
2018-08-07T17:45:29.191Z,50.90
2018-08-07T17:47:59.374Z,50.90
2018-08-07T17:50:28.863Z,50.60
2018-08-07T17:52:59.655Z,50.80
2018-08-07T17:55:28.558Z,50.70
2018-08-07T17:57:58.508Z,51.00
2018-08-07T18:00:28.608Z,51.30
2018-08-07T18:02:58.119Z,51.30
2018-08-07T18:05:27.121Z,51.50
2018-08-07T18:07:57.392Z,51.50
2018-08-07T18:10:27.371Z,51.60
2018-08-07T18:12:57.430Z,51.80
2018-08-07T18:15:26.776Z,52.10
2018-08-07T18:17:55.730Z,51.60
2018-08-07T18:20:25.895Z,51.60
2018-08-07T18:22:55.768Z,51.70
2018-08-07T18:25:25.117Z,51.80
2018-08-07T18:27:54.510Z,52.10
2018-08-07T18:30:25.458Z,52.40
2018-08-07T18:33:00.001Z,52.50
2018-08-07T18:35:30.104Z,52.30
2018-08-07T18:37:59.305Z,52.50
2018-08-07T18:40:29.715Z,52.80
2018-08-07T18:42:58.379Z,53.20
2018-08-07T18:45:27.741Z,53.40
2018-08-07T18:47:56.577Z,53.50
2018-08-07T18:50:25.464Z,53.60
2018-08-07T18:52:55.729Z,53.70
2018-08-07T18:55:24.982Z,53.70
2018-08-07T18:57:54.949Z,53.70
2018-08-07T19:00:24.954Z,53.70
2018-08-07T19:02:55.071Z,53.70
2018-08-07T19:05:24.852Z,53.70
2018-08-07T19:07:54.178Z,53.80
2018-08-07T19:10:23.176Z,53.90
2018-08-07T19:12:52.167Z,53.90
2018-08-07T19:15:21.762Z,54.30
2018-08-07T19:17:51.033Z,54.50
2018-08-07T19:20:22.106Z,54.70
2018-08-07T19:22:57.332Z,55.10
2018-08-07T19:25:27.071Z,55.40
2018-08-07T19:27:57.461Z,55.40
2018-08-07T19:30:26.768Z,55.40
2018-08-07T19:32:56.013Z,55.40
2018-08-07T19:35:25.626Z,55.50
2018-08-07T19:37:54.503Z,55.80
2018-08-07T19:40:23.883Z,55.80
2018-08-07T19:42:54.125Z,56.00
2018-08-07T19:45:23.223Z,56.10
2018-08-07T19:47:51.908Z,56.10
2018-08-07T19:50:22.904Z,56.10
2018-08-07T19:52:52.254Z,56.20
2018-08-07T19:55:22.172Z,56.70
2018-08-07T19:57:51.530Z,56.90
2018-08-07T20:00:26.509Z,56.90
2018-08-07T20:02:56.336Z,56.80
2018-08-07T20:05:25.399Z,56.70
2018-08-07T20:07:55.782Z,57.00
2018-08-07T20:10:24.495Z,57.10
2018-08-07T20:12:53.149Z,57.30
2018-08-07T20:15:24.799Z,57.60
2018-08-07T20:17:54.080Z,56.90
2018-08-07T20:20:23.607Z,57.00
2018-08-07T20:22:53.171Z,57.00
2018-08-07T20:25:22.819Z,56.90
2018-08-07T20:27:51.637Z,56.90
2018-08-07T20:30:22.011Z,56.90
2018-08-07T20:32:52.033Z,57.10
2018-08-07T20:35:20.979Z,57.20
2018-08-07T20:37:50.174Z,57.30
2018-08-07T20:40:21.966Z,57.40
2018-08-07T20:42:51.615Z,57.50
2018-08-07T20:45:21.786Z,57.40
2018-08-07T20:47:51.063Z,57.50
2018-08-07T20:50:24.829Z,57.40
2018-08-07T20:52:54.592Z,57.10
2018-08-07T20:55:23.656Z,57.20
2018-08-07T20:57:52.339Z,57.30
2018-08-07T21:00:27.236Z,57.40
2018-08-07T21:03:01.466Z,57.30
2018-08-07T21:05:30.639Z,57.40
2018-08-07T21:07:59.458Z,57.60
2018-08-07T21:10:28.943Z,57.50
2018-08-07T21:12:58.093Z,57.60
2018-08-07T21:15:26.974Z,57.60
2018-08-07T21:17:55.590Z,57.90
2018-08-07T21:20:25.198Z,57.90
2018-08-07T21:22:54.474Z,58.00
2018-08-07T21:25:24.877Z,58.40
2018-08-07T21:27:55.883Z,58.60
2018-08-07T21:30:27.384Z,58.60
2018-08-07T21:32:56.022Z,58.70
2018-08-07T21:35:25.200Z,58.70
2018-08-07T21:37:53.886Z,58.90
2018-08-07T21:40:23.723Z,59.20
2018-08-07T21:42:53.501Z,59.20
2018-08-07T21:45:22.511Z,59.20
2018-08-07T21:47:51.093Z,59.20
2018-08-07T21:50:21.287Z,59.50
2018-08-07T21:52:50.023Z,59.60
2018-08-07T21:55:19.809Z,59.50
2018-08-07T21:57:49.031Z,59.50
2018-08-07T22:00:24.343Z,59.50
2018-08-07T22:02:53.341Z,59.50
2018-08-07T22:05:21.941Z,59.60
2018-08-07T22:07:50.604Z,59.60
2018-08-07T22:10:20.796Z,59.60
2018-08-07T22:12:49.719Z,59.40
2018-08-07T22:15:19.280Z,59.20
2018-08-07T22:17:48.265Z,59.40
2018-08-07T22:20:16.964Z,59.70
2018-08-07T22:22:45.696Z,59.80
2018-08-07T22:25:14.986Z,59.70
2018-08-07T22:27:43.673Z,59.70
2018-08-07T22:30:16.915Z,59.80
2018-08-07T22:32:45.964Z,59.70
2018-08-07T22:35:15.219Z,60.00
2018-08-07T22:37:44.753Z,59.60
2018-08-07T22:40:14.517Z,59.70
2018-08-07T22:42:43.847Z,59.70
2018-08-07T22:45:14.232Z,59.60
2018-08-07T22:47:43.206Z,59.30
2018-08-07T22:50:15.492Z,59.20
2018-08-07T22:54:09.143Z,59.20
2018-08-07T22:56:38.053Z,59.40
2018-08-07T22:59:06.691Z,59.80
2018-08-07T23:01:36.026Z,59.80
2018-08-07T23:04:06.772Z,59.80
2018-08-07T23:06:36.097Z,59.60
2018-08-07T23:09:06.383Z,59.50
2018-08-07T23:11:35.685Z,59.40
2018-08-07T23:14:04.576Z,59.20
2018-08-07T23:16:33.156Z,59.40
2018-08-07T23:19:02.075Z,59.50
2018-08-07T23:21:31.028Z,59.50
2018-08-07T23:24:00.779Z,59.60
2018-08-07T23:26:29.362Z,59.50
2018-08-07T23:28:58.654Z,59.40
2018-08-07T23:31:27.449Z,59.60
2018-08-07T23:33:56.323Z,59.60
2018-08-07T23:36:25.005Z,59.60
2018-08-07T23:38:53.609Z,59.60
2018-08-07T23:41:22.314Z,59.70
2018-08-07T23:43:51.596Z,60.00
2018-08-07T23:46:20.421Z,60.10
2018-08-07T23:48:49.148Z,60.20
2018-08-07T23:51:18.169Z,60.50
2018-08-07T23:53:46.711Z,60.30
2018-08-07T23:56:15.374Z,60.30
2018-08-07T23:58:44.059Z,60.50
